Time;durP1;ratioP1;P1;durP2;ratioP2;P2;SDS_P1;SDS_P2;PMS_P1;PMS_P2;Temp;Humidity;BMP_temperature;BMP_pressure;BME280_temperature;BME280_humidity;BME280_pressure;Samples;Min_cycle;Max_cycle;Signal;HPM_P1;HPM_P2
2023/07/14 00:00:42;;;;;;;17.97;8.67;;;;;;;19.10;100.00;101669.53;5234458;28;20037;-73
2023/07/14 00:03:18;;;;;;;14.35;7.43;;;;;;;19.13;100.00;101667.63;5234973;28;20038;-73
2023/07/14 00:05:49;;;;;;;12.37;7.17;;;;;;;19.22;100.00;101665.03;5217610;28;20386;-73
2023/07/14 00:08:21;;;;;;;12.97;8.27;;;;;;;18.79;100.00;101653.50;5235003;28;20024;-73
2023/07/14 00:10:52;;;;;;;10.63;6.70;;;;;;;19.05;100.00;101666.44;5214389;28;20053;-73
2023/07/14 00:13:24;;;;;;;13.53;7.63;;;;;;;19.20;100.00;101666.16;5235716;28;20021;-73
2023/07/14 00:15:55;;;;;;;13.77;8.13;;;;;;;18.89;100.00;101658.88;5234869;28;20674;-73
2023/07/14 00:18:26;;;;;;;13.07;7.23;;;;;;;19.16;100.00;101657.59;5234942;28;20029;-73
2023/07/14 00:20:59;;;;;;;14.40;7.30;;;;;;;18.82;100.00;101655.91;5235249;28;20494;-74
2023/07/14 00:23:31;;;;;;;10.77;6.10;;;;;;;18.99;100.00;101643.03;5217410;28;20021;-73
2023/07/14 00:26:02;;;;;;;7.90;6.30;;;;;;;19.11;100.00;101649.19;5235832;28;20033;-73
2023/07/14 00:28:33;;;;;;;9.47;7.00;;;;;;;18.74;100.00;101653.06;5235258;28;20067;-71
2023/07/14 00:31:09;;;;;;;10.57;6.17;;;;;;;18.89;100.00;101644.78;5234790;28;20052;-73
2023/07/14 00:33:44;;;;;;;8.23;6.10;;;;;;;18.86;100.00;101653.84;5216932;28;20108;-73
2023/07/14 00:36:19;;;;;;;7.77;5.73;;;;;;;18.65;100.00;101651.13;5235763;28;20030;-73
2023/07/14 00:38:51;;;;;;;6.30;5.40;;;;;;;18.95;100.00;101649.59;5198406;28;20042;-73
2023/07/14 00:41:23;;;;;;;10.57;5.90;;;;;;;18.70;100.00;101648.94;5213959;28;20034;-72
2023/07/14 00:43:55;;;;;;;11.27;6.17;;;;;;;18.44;100.00;101652.78;5214353;28;20065;-74
2023/07/14 00:46:29;;;;;;;8.93;5.87;;;;;;;18.85;100.00;101645.03;5225601;28;20060;-72
2023/07/14 00:49:06;;;;;;;8.47;5.33;;;;;;;18.78;100.00;101640.38;5203585;28;20473;-74
2023/07/14 00:51:39;;;;;;;11.13;6.20;;;;;;;18.88;100.00;101643.09;5231662;28;20037;-73
2023/07/14 00:54:25;;;;;;;8.33;6.07;;;;;;;18.86;100.00;101630.81;5234155;28;20472;-73
2023/07/14 00:56:57;;;;;;;10.23;5.73;;;;;;;18.80;100.00;101631.31;5228899;28;20029;-73
2023/07/14 00:59:33;;;;;;;9.90;6.67;;;;;;;18.91;100.00;101637.53;5234413;28;20013;-74
2023/07/14 01:02:10;;;;;;;13.07;6.57;;;;;;;18.69;100.00;101636.66;5230502;28;20028;-71
2023/07/14 01:04:49;;;;;;;10.43;7.30;;;;;;;18.62;100.00;101637.16;5232538;28;20075;-72
2023/07/14 01:07:29;;;;;;;8.80;5.77;;;;;;;18.68;100.00;101635.81;5234911;28;20061;-72
2023/07/14 01:10:03;;;;;;;7.93;5.77;;;;;;;18.84;100.00;101643.34;5216155;28;20464;-73
2023/07/14 01:12:38;;;;;;;7.53;6.25;;;;;;;18.89;100.00;101642.97;5233916;28;20480;-72
2023/07/14 01:15:10;;;;;;;10.37;6.83;;;;;;;18.73;100.00;101640.72;5232705;28;20030;-73
2023/07/14 01:17:43;;;;;;;10.57;6.40;;;;;;;18.88;100.00;101637.78;5234189;28;20025;-72
2023/07/14 01:20:15;;;;;;;10.20;6.57;;;;;;;18.68;100.00;101632.31;5216292;28;20018;-73
2023/07/14 01:22:46;;;;;;;7.93;6.23;;;;;;;18.56;100.00;101634.16;5233728;28;20778;-73
2023/07/14 01:25:53;;;;;;;13.20;7.40;;;;;;;18.96;100.00;101624.72;5239450;28;20017;-72
2023/07/14 01:28:24;;;;;;;9.40;6.33;;;;;;;18.78;100.00;101629.75;5206944;28;20471;-73
2023/07/14 01:30:56;;;;;;;10.73;6.90;;;;;;;18.54;100.00;101620.19;5225547;28;20025;-72
2023/07/14 01:33:27;;;;;;;9.57;6.47;;;;;;;18.56;100.00;101623.56;5213965;28;20029;-72
2023/07/14 01:36:00;;;;;;;8.10;6.63;;;;;;;18.74;100.00;101623.88;5234126;28;20029;-73
2023/07/14 01:38:32;;;;;;;9.83;7.33;;;;;;;18.57;100.00;101625.25;5233428;28;20116;-73
2023/07/14 01:41:06;;;;;;;10.37;6.80;;;;;;;18.60;100.00;101617.03;5215821;28;20025;-73
2023/07/14 01:43:39;;;;;;;9.20;6.53;;;;;;;18.84;100.00;101616.81;5215142;28;20032;-72
2023/07/14 01:46:20;;;;;;;7.40;6.50;;;;;;;18.90;100.00;101617.28;5232746;28;20051;-73
2023/07/14 01:48:57;;;;;;;8.87;7.13;;;;;;;18.67;100.00;101617.38;5232964;28;20018;-73
2023/07/14 01:51:33;;;;;;;8.97;6.83;;;;;;;18.78;100.00;101614.66;5214951;28;20045;-74
2023/07/14 01:54:31;;;;;;;9.03;7.03;;;;;;;18.78;100.00;101611.19;5216023;28;20060;-73
2023/07/14 01:57:11;;;;;;;9.50;6.47;;;;;;;18.45;100.00;101605.88;5233309;28;20152;-74
2023/07/14 01:59:50;;;;;;;8.90;6.97;;;;;;;18.68;100.00;101600.47;5233450;28;20091;-73
2023/07/14 02:02:27;;;;;;;7.53;6.57;;;;;;;18.72;100.00;101607.22;5219411;28;20034;-72
2023/07/14 02:05:05;;;;;;;9.70;7.30;;;;;;;18.71;100.00;101610.84;5216021;28;20056;-72
2023/07/14 02:07:36;;;;;;;8.50;6.30;;;;;;;18.45;100.00;101595.28;5232922;28;20055;-73
2023/07/14 02:10:19;;;;;;;7.70;6.10;;;;;;;18.84;100.00;101608.00;5224747;28;20025;-73
2023/07/14 02:12:53;;;;;;;8.87;7.10;;;;;;;18.36;100.00;101599.53;5232576;28;20034;-74
2023/07/14 02:15:31;;;;;;;8.05;6.30;;;;;;;18.62;100.00;101594.72;5231067;28;20041;-72
2023/07/14 02:18:03;;;;;;;8.23;6.60;;;;;;;18.54;100.00;101602.47;5243270;28;20103;-72
2023/07/14 02:20:38;;;;;;;11.30;7.27;;;;;;;18.65;100.00;101595.44;5232613;28;20033;-72
2023/07/14 02:23:14;;;;;;;7.53;6.40;;;;;;;18.68;100.00;101592.50;5232189;28;20030;-72
2023/07/14 02:25:47;;;;;;;8.30;6.93;;;;;;;18.47;100.00;101593.31;5232401;28;20033;-73
2023/07/14 02:28:19;;;;;;;11.57;6.95;;;;;;;18.48;100.00;101589.72;5215061;28;20112;-73
2023/07/14 02:31:01;;;;;;;10.37;7.67;;;;;;;18.59;100.00;101589.66;5231731;28;20120;-75
2023/07/14 02:33:38;;;;;;;9.53;6.90;;;;;;;18.49;100.00;101596.69;5230909;28;20028;-73
2023/07/14 02:36:18;;;;;;;9.80;6.57;;;;;;;18.32;100.00;101593.63;5233143;28;20056;-73
2023/07/14 02:38:50;;;;;;;9.47;6.57;;;;;;;18.03;100.00;101586.16;5232883;28;20034;-73
2023/07/14 02:41:48;;;;;;;10.37;7.13;;;;;;;18.36;100.00;101589.75;5214966;28;20162;-70
2023/07/14 02:44:26;;;;;;;9.40;7.30;;;;;;;17.81;100.00;101590.53;5229392;28;20073;-73
2023/07/14 02:47:05;;;;;;;8.90;6.80;;;;;;;18.25;100.00;101589.78;5231966;28;20029;-70
2023/07/14 02:49:37;;;;;;;10.50;7.20;;;;;;;17.68;100.00;101595.94;5229949;28;20022;-73
2023/07/14 02:52:08;;;;;;;12.30;7.00;;;;;;;17.99;100.00;101590.06;5233153;28;20030;-73
2023/07/14 02:54:40;;;;;;;8.53;6.93;;;;;;;17.83;100.00;101601.88;5232128;28;20021;-73
2023/07/14 02:57:11;;;;;;;11.10;7.50;;;;;;;17.83;100.00;101591.28;5205724;28;20392;-72
2023/07/14 02:59:43;;;;;;;11.00;6.97;;;;;;;17.75;100.00;101588.41;5230953;28;20466;-73
2023/07/14 03:02:14;;;;;;;9.77;7.80;;;;;;;18.00;100.00;101586.41;5213568;28;20428;-73
2023/07/14 03:04:45;;;;;;;8.27;6.50;;;;;;;18.06;100.00;101585.94;5210581;28;20693;-71
2023/07/14 03:07:17;;;;;;;7.70;6.90;;;;;;;18.12;100.00;101589.88;5232426;28;20492;-72
2023/07/14 03:09:48;;;;;;;10.70;6.37;;;;;;;18.09;100.00;101585.69;5232506;28;20415;-72
2023/07/14 03:12:20;;;;;;;8.13;6.77;;;;;;;18.17;100.00;101592.22;5238889;28;20021;-72
2023/07/14 03:14:51;;;;;;;8.33;6.73;;;;;;;17.86;100.00;101591.03;5219903;28;20025;-71
2023/07/14 03:17:23;;;;;;;7.20;6.37;;;;;;;18.08;100.00;101578.69;5227728;28;20145;-72
2023/07/14 03:19:54;;;;;;;9.53;6.63;;;;;;;18.19;100.00;101584.97;5213326;28;20032;-72
2023/07/14 03:22:30;;;;;;;8.80;6.17;;;;;;;18.20;100.00;101581.38;5232470;28;20392;-72
2023/07/14 03:25:02;;;;;;;8.93;6.00;;;;;;;18.21;100.00;101569.78;5231925;28;20428;-71
2023/07/14 03:27:33;;;;;;;8.70;5.70;;;;;;;18.12;100.00;101573.97;5232663;28;20151;-71
2023/07/14 03:30:05;;;;;;;9.93;5.87;;;;;;;18.09;100.00;101576.88;5235224;28;20017;-71
2023/07/14 03:32:36;;;;;;;8.13;5.20;;;;;;;18.09;100.00;101569.78;5236169;28;20052;-72
2023/07/14 03:35:08;;;;;;;7.43;5.33;;;;;;;18.17;100.00;101565.72;5217338;28;20025;-71
2023/07/14 03:37:41;;;;;;;6.77;5.47;;;;;;;18.21;100.00;101573.28;5235307;28;20025;-72
2023/07/14 03:40:12;;;;;;;7.50;5.00;;;;;;;18.23;100.00;101570.50;5235823;28;20109;-70
2023/07/14 03:42:44;;;;;;;8.23;5.37;;;;;;;18.13;100.00;101570.38;5235494;28;20970;-72
2023/07/14 03:45:15;;;;;;;7.50;4.50;;;;;;;18.10;100.00;101560.84;5235411;28;20064;-71
2023/07/14 03:47:47;;;;;;;7.23;4.50;;;;;;;18.17;100.00;101566.53;5235935;28;20030;-70
2023/07/14 03:50:18;;;;;;;6.47;4.20;;;;;;;18.16;100.00;101558.72;5235755;28;20024;-72
2023/07/14 03:52:49;;;;;;;6.73;5.03;;;;;;;18.16;100.00;101553.41;5235831;28;20052;-72
2023/07/14 03:55:21;;;;;;;9.20;4.23;;;;;;;18.09;100.00;101563.63;5235884;28;20032;-73
2023/07/14 03:57:52;;;;;;;5.80;4.40;;;;;;;18.13;100.00;101565.94;5235356;28;20099;-69
2023/07/14 04:00:23;;;;;;;7.17;4.23;;;;;;;18.13;100.00;101554.47;5234680;28;20504;-72
2023/07/14 04:02:56;;;;;;;7.27;4.10;;;;;;;17.98;100.00;101556.53;5235042;28;20042;-73
2023/07/14 04:05:27;;;;;;;6.73;4.33;;;;;;;18.07;100.00;101555.81;5234698;28;20025;-71
2023/07/14 04:07:59;;;;;;;6.33;3.77;;;;;;;18.11;100.00;101553.75;5235390;28;20456;-73
2023/07/14 04:10:30;;;;;;;7.20;4.33;;;;;;;18.16;100.00;101548.09;5234152;28;20099;-73
2023/07/14 04:13:02;;;;;;;6.13;4.33;;;;;;;18.20;100.00;101562.81;5234397;28;20124;-73
2023/07/14 04:15:33;;;;;;;13.00;4.20;;;;;;;18.19;100.00;101558.44;5232861;28;20542;-73
2023/07/14 04:18:04;;;;;;;8.03;4.33;;;;;;;17.99;100.00;101559.09;5217071;28;20129;-73
2023/07/14 04:20:36;;;;;;;10.27;4.43;;;;;;;18.07;100.00;101550.50;5234481;28;20037;-72
2023/07/14 04:23:07;;;;;;;9.63;4.70;;;;;;;18.02;100.00;101542.94;5235388;28;20079;-72
2023/07/14 04:25:38;;;;;;;11.00;6.00;;;;;;;17.89;100.00;101548.38;5213428;28;20108;-72
2023/07/14 04:28:10;;;;;;;14.07;6.97;;;;;;;18.07;100.00;101554.97;5217546;28;20021;-71
2023/07/14 04:30:42;;;;;;;12.87;7.87;;;;;;;18.07;100.00;101541.72;5233387;28;20116;-72
2023/07/14 04:33:13;;;;;;;10.47;5.60;;;;;;;18.02;100.00;101545.59;5234952;28;20026;-70
2023/07/14 04:35:44;;;;;;;10.03;5.00;;;;;;;17.95;100.00;101532.94;5234706;28;20065;-73
2023/07/14 04:38:16;;;;;;;11.93;4.60;;;;;;;17.94;100.00;101547.19;5233970;28;20419;-71
2023/07/14 04:40:48;;;;;;;7.43;3.80;;;;;;;18.04;100.00;101550.75;5234325;28;20029;-72
2023/07/14 04:43:19;;;;;;;8.27;3.77;;;;;;;18.02;100.00;101550.91;5234077;28;20025;-70
2023/07/14 04:45:51;;;;;;;9.03;4.07;;;;;;;17.97;100.00;101550.44;5232412;28;20025;-71
2023/07/14 04:48:23;;;;;;;18.30;4.77;;;;;;;17.94;100.00;101540.06;5228421;28;20022;-71
2023/07/14 04:50:54;;;;;;;12.23;5.30;;;;;;;18.00;100.00;101544.03;5233734;28;20034;-71
2023/07/14 04:53:25;;;;;;;8.07;4.03;;;;;;;17.75;100.00;101543.34;5234179;28;20029;-72
2023/07/14 04:55:57;;;;;;;9.40;4.30;;;;;;;17.86;100.00;101558.38;5210614;28;20034;-71
2023/07/14 04:58:28;;;;;;;7.13;4.07;;;;;;;17.79;100.00;101558.03;5233161;28;20026;-71
2023/07/14 05:01:01;;;;;;;7.67;3.77;;;;;;;17.76;100.00;101555.63;5233027;28;20471;-70
2023/07/14 05:03:32;;;;;;;7.97;4.00;;;;;;;17.81;100.00;101549.94;5215186;28;20135;-72
2023/07/14 05:06:04;;;;;;;8.57;4.20;;;;;;;17.78;100.00;101551.06;5224057;28;20033;-71
2023/07/14 05:08:35;;;;;;;7.30;3.80;;;;;;;17.87;100.00;101552.94;5215912;28;20080;-71
2023/07/14 05:11:07;;;;;;;6.83;4.10;;;;;;;17.95;100.00;101546.19;5230915;28;20029;-71
2023/07/14 05:13:38;;;;;;;7.73;4.10;;;;;;;17.88;100.00;101540.56;5233639;28;20072;-71
2023/07/14 05:16:10;;;;;;;8.03;4.23;;;;;;;17.90;100.00;101544.78;5228893;28;20107;-72
2023/07/14 05:18:41;;;;;;;6.03;4.20;;;;;;;17.86;100.00;101543.31;5233548;28;20037;-71
2023/07/14 05:21:13;;;;;;;10.83;4.47;;;;;;;17.90;100.00;101544.78;5216062;28;20104;-72
2023/07/14 05:23:44;;;;;;;8.00;4.13;;;;;;;17.93;100.00;101538.38;5229172;28;20037;-71
2023/07/14 05:26:16;;;;;;;8.40;4.27;;;;;;;18.02;100.00;101542.09;5231570;28;20029;-72
2023/07/14 05:28:47;;;;;;;12.40;5.00;;;;;;;18.05;100.00;101541.84;5212312;28;20021;-71
2023/07/14 05:31:18;;;;;;;9.07;4.43;;;;;;;17.92;100.00;101542.00;5233218;28;20484;-72
2023/07/14 05:33:50;;;;;;;11.57;4.67;;;;;;;17.98;100.00;101543.28;5229509;28;20033;-72
2023/07/14 05:36:21;;;;;;;8.93;4.13;;;;;;;18.07;100.00;101542.56;5216191;28;20053;-72
2023/07/14 05:38:52;;;;;;;12.97;5.47;;;;;;;18.15;100.00;101541.97;5233276;28;20084;-69
2023/07/14 05:41:24;;;;;;;6.17;3.60;;;;;;;18.33;100.00;101536.97;5231503;28;20112;-70
2023/07/14 05:43:55;;;;;;;7.20;4.23;;;;;;;18.31;100.00;101530.94;5215738;28;20396;-70
2023/07/14 05:46:27;;;;;;;8.07;4.10;;;;;;;18.39;100.00;101538.28;5232022;28;20036;-71
2023/07/14 05:48:58;;;;;;;9.40;3.67;;;;;;;18.42;100.00;101526.56;5233350;28;20029;-71
2023/07/14 05:51:30;;;;;;;6.93;3.70;;;;;;;18.45;100.00;101532.44;5230941;28;20076;-70
2023/07/14 05:54:01;;;;;;;7.77;4.00;;;;;;;18.58;100.00;101542.91;5231334;28;20040;-70
2023/07/14 05:56:34;;;;;;;8.37;3.97;;;;;;;18.64;100.00;101538.06;5233985;28;20083;-71
2023/07/14 05:59:05;;;;;;;8.13;3.93;;;;;;;18.67;100.00;101543.09;5227997;28;20030;-70
2023/07/14 06:01:36;;;;;;;7.57;4.00;;;;;;;18.71;100.00;101532.09;5219833;28;20558;-71
2023/07/14 06:04:10;;;;;;;8.97;4.00;;;;;;;18.80;100.00;101534.97;5230196;28;20281;-71
2023/07/14 06:06:42;;;;;;;7.70;3.80;;;;;;;18.77;100.00;101546.66;5222762;28;20133;-71
2023/07/14 06:09:14;;;;;;;8.07;3.60;;;;;;;18.78;100.00;101548.31;5229039;28;20535;-70
2023/07/14 06:11:45;;;;;;;9.17;4.67;;;;;;;18.81;100.00;101548.09;5232220;28;20021;-70
2023/07/14 06:14:16;;;;;;;9.77;4.53;;;;;;;18.67;100.00;101546.59;5225428;28;20041;-72
2023/07/14 06:16:48;;;;;;;7.40;4.47;;;;;;;18.77;100.00;101541.34;5216100;28;20030;-72
2023/07/14 06:19:19;;;;;;;6.67;4.23;;;;;;;18.73;100.00;101546.06;5233360;28;20029;-72
2023/07/14 06:21:51;;;;;;;10.00;3.80;;;;;;;18.79;100.00;101544.72;5215076;28;20036;-73
2023/07/14 06:24:24;;;;;;;9.87;4.83;;;;;;;18.86;100.00;101542.38;5234236;28;20033;-71
2023/07/14 06:26:55;;;;;;;9.83;4.10;;;;;;;18.90;100.00;101535.88;5207542;28;20040;-71
2023/07/14 06:29:27;;;;;;;7.33;3.80;;;;;;;19.04;100.00;101534.66;5226300;28;20041;-71
2023/07/14 06:31:59;;;;;;;9.10;4.10;;;;;;;19.07;100.00;101536.22;5234111;28;20033;-71
2023/07/14 06:34:30;;;;;;;9.27;4.03;;;;;;;19.06;100.00;101540.69;5232472;28;20489;-71
2023/07/14 06:37:02;;;;;;;7.57;3.50;;;;;;;19.16;99.51;101539.94;5233171;28;20028;-72
2023/07/14 06:39:33;;;;;;;4.77;3.57;;;;;;;19.21;98.20;101535.06;5232907;28;20032;-72
2023/07/14 06:42:05;;;;;;;6.27;3.27;;;;;;;19.39;98.70;101534.47;5232436;28;20156;-72
2023/07/14 06:44:37;;;;;;;6.47;3.67;;;;;;;19.37;97.59;101525.78;5232000;28;20048;-72
2023/07/14 06:47:08;;;;;;;5.73;4.10;;;;;;;19.42;94.78;101536.84;5215193;28;20025;-72
2023/07/14 06:49:40;;;;;;;7.00;3.93;;;;;;;19.50;92.88;101530.84;5225662;28;20036;-72
2023/07/14 06:52:12;;;;;;;8.33;3.50;;;;;;;19.61;93.41;101511.31;5232816;28;20072;-72
2023/07/14 06:54:46;;;;;;;7.27;3.60;;;;;;;19.93;93.18;101518.25;5231961;28;20452;-72
2023/07/14 06:57:18;;;;;;;7.38;3.85;;;;;;;19.82;87.70;101520.03;5232781;28;20033;-72
2023/07/14 06:59:49;;;;;;;8.80;3.50;;;;;;;19.84;86.87;101511.94;5230822;28;20464;-72
2023/07/14 07:02:21;;;;;;;5.90;3.10;;;;;;;20.11;87.99;101502.47;5228202;28;20108;-70
2023/07/14 07:04:52;;;;;;;6.50;3.43;;;;;;;20.22;85.71;101514.78;5236029;28;20026;-71
2023/07/14 07:07:24;;;;;;;6.83;2.73;;;;;;;20.23;82.89;101524.44;5236962;28;20083;-72
2023/07/14 07:09:56;;;;;;;7.73;3.10;;;;;;;20.16;80.07;101510.06;5236077;28;20025;-72
2023/07/14 07:12:27;;;;;;;11.00;4.00;;;;;;;20.16;82.32;101510.88;5249891;28;20460;-74
2023/07/14 07:14:59;;;;;;;6.43;2.87;;;;;;;20.04;84.43;101502.19;5235519;28;20032;-72
2023/07/14 07:17:30;;;;;;;6.83;3.90;;;;;;;20.19;84.10;101502.59;5218096;28;20035;-72
2023/07/14 07:20:02;;;;;;;8.67;3.40;;;;;;;20.15;84.78;101511.84;5234512;28;20084;-72
2023/07/14 07:22:36;;;;;;;8.07;2.50;;;;;;;20.27;80.97;101501.91;5235628;28;20319;-72
2023/07/14 07:25:08;;;;;;;8.30;3.50;;;;;;;20.28;80.21;101497.44;5234997;28;20037;-72
2023/07/14 07:27:39;;;;;;;11.00;3.10;;;;;;;20.33;80.15;101491.69;5235735;28;20040;-71
2023/07/14 07:30:11;;;;;;;7.50;3.40;;;;;;;20.36;80.48;101494.91;5233951;28;20592;-71
2023/07/14 07:32:46;;;;;;;10.10;3.53;;;;;;;20.47;81.42;101496.59;5235894;28;20034;-72
2023/07/14 07:35:17;;;;;;;6.70;2.90;;;;;;;20.32;77.78;101501.47;5235013;28;20512;-72
2023/07/14 07:37:49;;;;;;;8.67;2.97;;;;;;;20.36;75.66;101504.72;5235974;28;20083;-72
2023/07/14 07:40:20;;;;;;;7.83;2.93;;;;;;;20.38;76.52;101492.13;5217679;28;20037;-71
2023/07/14 07:42:52;;;;;;;5.10;3.10;;;;;;;20.58;76.01;101500.09;5226367;28;20540;-72
2023/07/14 07:45:23;;;;;;;8.50;3.60;;;;;;;20.69;74.63;101491.94;5248034;28;20017;-72
2023/07/14 07:47:55;;;;;;;9.23;3.23;;;;;;;20.92;73.67;101496.91;5235150;28;20037;-71
2023/07/14 07:50:26;;;;;;;8.57;2.90;;;;;;;20.85;69.67;101487.81;5227228;28;20025;-72
2023/07/14 07:52:57;;;;;;;8.70;3.00;;;;;;;20.97;70.79;101493.84;5212546;28;20033;-72
2023/07/14 07:55:29;;;;;;;6.23;2.73;;;;;;;20.83;71.21;101487.13;5238665;28;20059;-73
2023/07/14 07:58:00;;;;;;;5.53;3.30;;;;;;;20.95;68.66;101491.31;5235812;28;20365;-72
2023/07/14 08:00:32;;;;;;;6.23;2.17;;;;;;;20.97;67.45;101478.72;5232973;28;20033;-72
2023/07/14 08:03:03;;;;;;;6.93;2.27;;;;;;;20.87;67.44;101480.53;5221720;28;20397;-72
2023/07/14 08:05:35;;;;;;;6.53;3.00;;;;;;;20.82;68.15;101478.31;5235577;28;20535;-72
2023/07/14 08:08:06;;;;;;;8.10;2.80;;;;;;;20.80;69.69;101478.44;5216032;28;20033;-72
2023/07/14 08:10:43;;;;;;;6.20;2.63;;;;;;;20.98;70.28;101464.41;5235008;28;20385;-72
2023/07/14 08:13:15;;;;;;;7.70;2.43;;;;;;;20.95;70.40;101472.69;5217335;28;20423;-73
2023/07/14 08:15:46;;;;;;;3.60;2.43;;;;;;;20.91;68.64;101476.59;5235417;28;20297;-71
2023/07/14 08:18:18;;;;;;;4.77;2.30;;;;;;;20.77;68.34;101481.41;5234163;28;20065;-71
2023/07/14 08:20:50;;;;;;;7.27;2.50;;;;;;;20.82;67.20;101477.47;5230713;28;20463;-72
2023/07/14 08:23:23;;;;;;;6.30;2.23;;;;;;;20.99;67.84;101467.91;5236871;28;20099;-71
2023/07/14 08:26:00;;;;;;;4.57;2.57;;;;;;;21.17;68.04;101475.13;5217737;28;20021;-71
2023/07/14 08:28:32;;;;;;;6.67;3.03;;;;;;;21.07;67.99;101477.84;5234784;28;20025;-72
2023/07/14 08:31:08;;;;;;;7.47;2.67;;;;;;;21.29;65.45;101468.63;5235928;28;20494;-72
2023/07/14 08:33:44;;;;;;;4.67;2.30;;;;;;;21.25;63.09;101462.75;5236258;28;20056;-72
2023/07/14 08:36:15;;;;;;;6.23;2.97;;;;;;;21.57;64.52;101465.97;5237422;28;20027;-71
2023/07/14 08:38:47;;;;;;;5.95;2.75;;;;;;;21.88;62.24;101478.13;5235998;28;20029;-72
2023/07/14 08:41:28;;;;;;;5.50;2.40;;;;;;;22.64;61.10;101472.41;5236565;28;20427;-72
2023/07/14 08:44:19;;;;;;;3.75;2.10;;;;;;;22.70;56.54;101474.47;5229574;28;20064;-72
2023/07/14 08:47:19;;;;;;;4.00;1.90;;;;;;;23.44;59.04;101462.44;5234710;28;20037;-72
2023/07/14 08:50:00;;;;;;;6.13;2.38;;;;;;;23.75;55.42;101462.84;5234718;28;20108;-77
2023/07/14 08:52:37;;;;;;;4.57;2.30;;;;;;;24.35;52.58;101457.38;5222974;28;20025;-77
2023/07/14 08:55:38;;;;;;;8.52;2.30;;;;;;;25.09;52.60;101464.41;5236351;28;20043;-78
2023/07/14 08:58:21;;;;;;;3.70;2.10;;;;;;;25.07;46.72;101466.44;5214056;28;20069;-76
2023/07/14 09:00:53;;;;;;;3.92;2.03;;;;;;;25.32;46.35;101460.97;5234538;28;20048;-74
2023/07/14 09:03:37;;;;;;;4.03;2.22;;;;;;;26.26;47.31;101455.63;5234744;28;20033;-76
2023/07/14 09:06:36;;;;;;;6.75;2.75;;;;;;;26.00;46.91;101451.47;5209139;28;20052;-75
2023/07/14 09:09:36;;;;;;;3.95;2.20;;;;;;;26.39;46.84;101441.56;5202243;28;20021;-77
2023/07/14 09:12:38;;;;;;;7.03;2.78;;;;;;;27.05;45.69;101442.69;5228891;28;20033;-75
2023/07/14 09:15:20;;;;;;;5.95;2.28;;;;;;;27.37;44.27;101447.81;5217133;28;20040;-75
2023/07/14 09:18:31;;;;;;;4.53;2.03;;;;;;;28.16;44.26;101441.75;5233461;28;20112;-75
2023/07/14 09:21:13;;;;;;;5.10;2.20;;;;;;;28.02;39.83;101438.09;5213164;28;20061;-74
2023/07/14 09:23:47;;;;;;;4.80;1.83;;;;;;;28.08;40.35;101441.88;5232543;28;20126;-75
2023/07/14 09:26:31;;;;;;;6.15;2.28;;;;;;;28.38;40.16;101436.34;5233872;28;20603;-75
2023/07/14 09:29:14;;;;;;;5.13;2.15;;;;;;;28.59;40.00;101442.69;5211884;28;20403;-76
2023/07/14 09:32:04;;;;;;;4.55;2.65;;;;;;;28.88;39.33;101438.06;5233713;28;20073;-75
2023/07/14 09:34:42;;;;;;;6.97;2.50;;;;;;;28.97;38.46;101444.94;5234388;28;20044;-75
2023/07/14 09:37:26;;;;;;;8.32;2.92;;;;;;;29.26;38.93;101425.97;5234689;28;20038;-75
2023/07/14 09:40:23;;;;;;;3.72;1.80;;;;;;;28.88;39.30;101427.28;5233988;28;20108;-74
2023/07/14 09:42:56;;;;;;;5.47;2.42;;;;;;;28.34;39.52;101424.25;5229089;28;20519;-73
2023/07/14 09:45:32;;;;;;;;;;;;;;;30.13;38.33;101418.97;5213801;28;20503;-74
2023/07/14 09:48:20;;;;;;;5.45;2.38;;;;;;;29.78;38.30;101411.09;5232342;28;19920;-74
2023/07/14 09:51:13;;;;;;;9.88;2.17;;;;;;;30.05;38.92;101411.94;5233883;28;20365;-74
2023/07/14 09:54:01;;;;;;;5.40;2.20;;;;;;;30.02;36.91;101408.84;5227105;28;20021;-74
2023/07/14 09:56:41;;;;;;;5.35;2.70;;;;;;;29.51;36.54;101413.78;5229174;28;20036;-72
2023/07/14 09:59:23;;;;;;;3.63;2.22;;;;;;;29.30;37.11;101410.22;5232971;28;20017;-72
2023/07/14 10:02:00;;;;;;;6.47;3.13;;;;;;;29.17;37.27;101401.06;5209718;28;20109;-72
2023/07/14 10:04:35;;;;;;;7.07;2.35;;;;;;;28.81;37.49;101408.38;5233789;28;20392;-72
2023/07/14 10:07:25;;;;;;;5.35;2.63;;;;;;;28.75;38.53;101390.31;5233827;28;20407;-72
2023/07/14 10:10:01;;;;;;;5.57;2.90;;;;;;;28.32;38.37;101391.31;5223397;28;20638;-72
2023/07/14 10:12:48;;;;;;;8.07;2.30;;;;;;;28.66;38.89;101381.56;5233823;28;20072;-71
2023/07/14 10:15:36;;;;;;;4.20;2.35;;;;;;;27.97;40.12;101370.56;5233821;28;20054;-71
2023/07/14 10:18:15;;;;;;;5.82;2.50;;;;;;;28.31;39.60;101370.81;5224743;28;20025;-72
2023/07/14 10:21:23;;;;;;;5.78;2.50;;;;;;;28.79;40.34;101361.94;5234951;28;20106;-73
2023/07/14 10:24:13;;;;;;;5.00;2.13;;;;;;;28.80;38.76;101368.16;5182217;28;20536;-73
2023/07/14 10:27:01;;;;;;;6.45;2.55;;;;;;;28.74;38.17;101367.09;5232885;28;20125;-73
2023/07/14 10:29:47;;;;;;;4.05;2.08;;;;;;;28.98;37.50;101354.09;5236293;28;20021;-72
2023/07/14 10:32:31;;;;;;;5.22;1.95;;;;;;;29.25;37.48;101343.41;5225973;28;20036;-73
2023/07/14 10:35:11;;;;;;;4.82;2.00;;;;;;;29.38;36.62;101344.47;5233879;28;20047;-72
2023/07/14 10:37:48;;;;;;;7.05;1.83;;;;;;;28.56;36.89;101341.53;5233752;28;20026;-72
2023/07/14 10:40:24;;;;;;;4.32;2.10;;;;;;;29.00;37.40;101341.28;5220822;28;20060;-72
2023/07/14 10:43:04;;;;;;;3.88;2.05;;;;;;;29.73;35.51;101329.94;5233654;28;20034;-72
2023/07/14 10:45:39;;;;;;;4.45;2.20;;;;;;;29.66;34.91;101332.63;5233048;28;20045;-73
2023/07/14 10:48:16;;;;;;;4.20;1.98;;;;;;;29.75;35.51;101325.16;5233891;28;20028;-72
2023/07/14 10:51:09;;;;;;;6.07;2.53;;;;;;;29.49;35.66;101316.84;5229282;28;20026;-72
2023/07/14 10:53:48;;;;;;;6.03;2.05;;;;;;;29.76;35.94;101313.34;5202665;28;20030;-73
2023/07/14 10:56:36;;;;;;;4.10;1.83;;;;;;;29.28;36.57;101315.19;5221624;28;20485;-72
2023/07/14 10:59:42;;;;;;;6.97;2.15;;;;;;;29.28;36.83;101312.47;5228996;28;20039;-73
2023/07/14 11:02:23;;;;;;;5.80;1.98;;;;;;;28.97;37.01;101314.72;5201205;28;20388;-73
2023/07/14 11:05:23;;;;;;;4.80;1.80;;;;;;;28.90;37.52;101320.09;5212961;28;20030;-72
2023/07/14 11:07:55;;;;;;;5.50;2.17;;;;;;;28.46;37.11;101306.88;5201556;28;20037;-73
2023/07/14 11:10:47;;;;;;;4.30;1.77;;;;;;;28.69;38.36;101304.88;5210945;28;20041;-73
2023/07/14 11:13:43;;;;;;;5.40;2.05;;;;;;;28.82;37.63;101307.63;5222568;28;20025;-74
2023/07/14 11:16:29;;;;;;;7.55;2.17;;;;;;;28.21;38.08;101291.19;5233718;28;20029;-75
2023/07/14 11:19:34;;;;;;;4.85;2.00;;;;;;;28.27;39.15;101268.03;5227286;28;20033;-70
2023/07/14 11:22:30;;;;;;;7.47;2.85;;;;;;;28.40;38.73;101272.66;5208185;28;20092;-71
2023/07/14 11:25:07;;;;;;;5.53;2.17;;;;;;;28.41;38.01;101274.34;5215249;28;20026;-71
2023/07/14 11:27:57;;;;;;;4.88;1.95;;;;;;;28.39;38.56;101271.00;5231661;28;20634;-70
2023/07/14 11:30:37;;;;;;;7.95;2.53;;;;;;;27.65;38.11;101268.69;5221392;28;20118;-72
2023/07/14 11:33:40;;;;;;;7.00;2.30;;;;;;;28.15;38.78;101268.59;5210371;28;20556;-74
2023/07/14 11:36:16;;;;;;;5.38;2.38;;;;;;;28.23;37.87;101262.22;5229096;28;20069;-72
2023/07/14 11:39:30;;;;;;;5.93;2.78;;;;;;;28.11;39.38;101258.44;5232897;28;20032;-72
2023/07/14 11:42:02;;;;;;;7.18;2.70;;;;;;;28.12;38.30;101255.53;5202172;28;20579;-73
2023/07/14 11:44:33;;;;;;;5.25;3.03;;;;;;;28.26;38.32;101255.59;5215055;28;20025;-74
2023/07/14 11:47:11;;;;;;;5.82;2.03;;;;;;;28.39;38.30;101246.78;5232699;28;20049;-71
2023/07/14 11:49:44;;;;;;;8.98;2.88;;;;;;;28.61;38.51;101241.22;5235175;28;20087;-73
2023/07/14 11:52:27;;;;;;;7.68;2.20;;;;;;;28.81;37.60;101240.44;5214753;28;20018;-73
2023/07/14 11:55:04;;;;;;;4.07;2.55;;;;;;;28.46;38.97;101231.47;5220593;28;20079;-70
2023/07/14 11:58:00;;;;;;;7.85;2.80;;;;;;;28.98;37.51;101222.88;5224562;28;20528;-71
2023/07/14 12:00:40;;;;;;;5.35;2.65;;;;;;;28.49;37.73;101235.59;5235562;28;20112;-71